sensor_id;sensor_type;location;lat;lon;timestamp;pressure;altitude;pressure_sealevel;temperature;humidity
47522;BME280;32291;52.010;4.446;2022-09-16T00:01:00;77932.16;;;-144.67;96.62
47522;BME280;32291;52.010;4.446;2022-09-16T00:02:03;77930.00;;;-144.67;96.77
47522;BME280;32291;52.010;4.446;2022-09-16T00:03:14;77927.88;;;-144.67;96.76
47522;BME280;32291;52.010;4.446;2022-09-16T00:04:18;77921.44;;;-144.67;97.34
47522;BME280;32291;52.010;4.446;2022-09-16T00:05:23;77910.75;;;-144.67;97.17
47522;BME280;32291;52.010;4.446;2022-09-16T00:06:31;77910.75;;;-144.67;97.38
47522;BME280;32291;52.010;4.446;2022-09-16T00:07:37;77910.75;;;-144.67;97.10
47522;BME280;32291;52.010;4.446;2022-09-16T00:08:43;77921.44;;;-144.67;97.35
47522;BME280;32291;52.010;4.446;2022-09-16T00:09:49;77908.59;;;-144.67;97.54
47522;BME280;32291;52.010;4.446;2022-09-16T00:10:59;77919.31;;;-144.67;97.66
47522;BME280;32291;52.010;4.446;2022-09-16T00:12:05;77912.88;;;-144.67;98.02
47522;BME280;32291;52.010;4.446;2022-09-16T00:13:12;77921.44;;;-144.67;98.05
47522;BME280;32291;52.010;4.446;2022-09-16T00:14:16;77915.03;;;-144.67;98.12
47522;BME280;32291;52.010;4.446;2022-09-16T00:15:19;77915.03;;;-144.67;97.41
47522;BME280;32291;52.010;4.446;2022-09-16T00:16:28;77897.91;;;-144.67;95.53
47522;BME280;32291;52.010;4.446;2022-09-16T00:17:31;77887.19;;;-144.67;94.69
47522;BME280;32291;52.010;4.446;2022-09-16T00:18:35;77889.34;;;-144.67;94.24
47522;BME280;32291;52.010;4.446;2022-09-16T00:19:44;77889.34;;;-144.67;94.28
47522;BME280;32291;52.010;4.446;2022-09-16T00:20:50;77870.06;;;-144.67;95.07
47522;BME280;32291;52.010;4.446;2022-09-16T00:21:58;77870.06;;;-144.67;96.24
47522;BME280;32291;52.010;4.446;2022-09-16T00:23:03;77874.34;;;-144.67;97.10
47522;BME280;32291;52.010;4.446;2022-09-16T00:24:12;77872.22;;;-144.67;97.44
47522;BME280;32291;52.010;4.446;2022-09-16T00:25:17;77880.78;;;-144.67;97.39
47522;BME280;32291;52.010;4.446;2022-09-16T00:26:22;77882.91;;;-144.67;97.64
47522;BME280;32291;52.010;4.446;2022-09-16T00:27:27;77885.06;;;-144.67;97.84
47522;BME280;32291;52.010;4.446;2022-09-16T00:28:30;77887.19;;;-144.67;97.76
47522;BME280;32291;52.010;4.446;2022-09-16T00:29:34;77897.91;;;-144.67;97.77
47522;BME280;32291;52.010;4.446;2022-09-16T00:30:40;77895.75;;;-144.67;96.96
47522;BME280;32291;52.010;4.446;2022-09-16T00:31:50;77897.91;;;-144.67;96.17
47522;BME280;32291;52.010;4.446;2022-09-16T00:32:56;77893.63;;;-144.67;96.46
47522;BME280;32291;52.010;4.446;2022-09-16T00:34:00;77902.19;;;-144.67;97.07
47522;BME280;32291;52.010;4.446;2022-09-16T00:35:04;77904.31;;;-144.67;97.63
47522;BME280;32291;52.010;4.446;2022-09-16T00:36:19;77904.31;;;-144.67;97.80
47522;BME280;32291;52.010;4.446;2022-09-16T00:37:23;77893.63;;;-144.67;98.39
47522;BME280;32291;52.010;4.446;2022-09-16T00:38:29;77893.63;;;-144.67;98.43
47522;BME280;32291;52.010;4.446;2022-09-16T00:39:33;77902.19;;;-144.67;99.97
47522;BME280;32291;52.010;4.446;2022-09-16T00:40:49;77906.47;;;-144.67;100.00
47522;BME280;32291;52.010;4.446;2022-09-16T00:41:55;77902.19;;;-144.67;100.00
47522;BME280;32291;52.010;4.446;2022-09-16T00:42:58;77906.47;;;-144.67;100.00
47522;BME280;32291;52.010;4.446;2022-09-16T00:46:04;77921.44;;;-144.67;100.00
47522;BME280;32291;52.010;4.446;2022-09-16T00:47:08;77925.72;;;-144.67;100.00
47522;BME280;32291;52.010;4.446;2022-09-16T00:48:19;77923.59;;;-144.67;100.00
47522;BME280;32291;52.010;4.446;2022-09-16T00:49:30;77934.28;;;-144.67;100.00
47522;BME280;32291;52.010;4.446;2022-09-16T00:50:47;77945.00;;;-144.67;100.00
47522;BME280;32291;52.010;4.446;2022-09-16T00:52:01;77938.56;;;-144.67;100.00
47522;BME280;32291;52.010;4.446;2022-09-16T00:53:16;77940.72;;;-144.67;100.00
47522;BME280;32291;52.010;4.446;2022-09-16T00:54:46;77949.28;;;-144.67;100.00
47522;BME280;32291;52.010;4.446;2022-09-16T00:55:52;77930.00;;;-144.67;100.00
47522;BME280;32291;52.010;4.446;2022-09-16T00:57:00;77930.00;;;-144.67;100.00
47522;BME280;32291;52.010;4.446;2022-09-16T00:58:14;77923.59;;;-144.67;100.00
47522;BME280;32291;52.010;4.446;2022-09-16T00:59:34;77927.88;;;-144.67;100.00
47522;BME280;32291;52.010;4.446;2022-09-16T01:00:41;77919.31;;;-144.67;100.00
47522;BME280;32291;52.010;4.446;2022-09-16T01:01:47;77921.44;;;-144.67;100.00
47522;BME280;32291;52.010;4.446;2022-09-16T01:02:51;77912.88;;;-144.67;100.00
47522;BME280;32291;52.010;4.446;2022-09-16T01:04:01;77919.31;;;-144.67;100.00
47522;BME280;32291;52.010;4.446;2022-09-16T01:05:24;77919.31;;;-144.67;100.00
47522;BME280;32291;52.010;4.446;2022-09-16T01:06:29;77919.31;;;-144.67;100.00
47522;BME280;32291;52.010;4.446;2022-09-16T01:07:45;77919.31;;;-144.67;100.00
47522;BME280;32291;52.010;4.446;2022-09-16T01:08:57;77923.59;;;-144.67;100.00
47522;BME280;32291;52.010;4.446;2022-09-16T01:10:01;77940.72;;;-144.67;100.00
47522;BME280;32291;52.010;4.446;2022-09-16T01:11:07;77930.00;;;-144.67;100.00
47522;BME280;32291;52.010;4.446;2022-09-16T01:12:11;77940.72;;;-144.67;100.00
47522;BME280;32291;52.010;4.446;2022-09-16T01:13:14;77945.00;;;-144.67;100.00
47522;BME280;32291;52.010;4.446;2022-09-16T01:14:20;77934.28;;;-144.67;100.00
47522;BME280;32291;52.010;4.446;2022-09-16T01:18:06;77949.28;;;-144.67;100.00
47522;BME280;32291;52.010;4.446;2022-09-16T01:22:09;77964.25;;;-144.67;100.00
47522;BME280;32291;52.010;4.446;2022-09-16T01:32:11;78099.13;;;-144.67;100.00
47522;BME280;32291;52.010;4.446;2022-09-16T01:37:25;78159.06;;;-144.67;100.00
47522;BME280;32291;52.010;4.446;2022-09-16T01:38:55;78159.06;;;-144.67;100.00
47522;BME280;32291;52.010;4.446;2022-09-16T01:40:57;78176.19;;;-144.67;100.00
47522;BME280;32291;52.010;4.446;2022-09-16T01:44:34;78184.75;;;-144.67;100.00
47522;BME280;32291;52.010;4.446;2022-09-16T01:46:31;78193.31;;;-144.67;100.00
47522;BME280;32291;52.010;4.446;2022-09-16T01:50:11;78189.03;;;-144.67;100.00
47522;BME280;32291;52.010;4.446;2022-09-16T01:52:05;78197.59;;;-144.67;100.00
47522;BME280;32291;52.010;4.446;2022-09-16T01:53:41;78199.75;;;-144.67;100.00
47522;BME280;32291;52.010;4.446;2022-09-16T01:55:07;78197.59;;;-144.67;100.00
47522;BME280;32291;52.010;4.446;2022-09-16T01:57:03;78206.19;;;-144.67;100.00
47522;BME280;32291;52.010;4.446;2022-09-16T01:58:50;78208.31;;;-144.67;100.00
47522;BME280;32291;52.010;4.446;2022-09-16T02:00:08;78199.75;;;-144.67;100.00
47522;BME280;32291;52.010;4.446;2022-09-16T02:01:24;78206.19;;;-144.67;100.00
47522;BME280;32291;52.010;4.446;2022-09-16T02:02:46;78197.59;;;-144.67;100.00
47522;BME280;32291;52.010;4.446;2022-09-16T02:04:13;78195.47;;;-144.67;100.00
47522;BME280;32291;52.010;4.446;2022-09-16T02:05:50;78193.31;;;-144.67;100.00
47522;BME280;32291;52.010;4.446;2022-09-16T02:07:01;78193.31;;;-144.67;100.00
47522;BME280;32291;52.010;4.446;2022-09-16T02:08:18;78197.59;;;-144.67;100.00
47522;BME280;32291;52.010;4.446;2022-09-16T02:09:50;78193.31;;;-144.67;100.00
47522;BME280;32291;52.010;4.446;2022-09-16T02:11:02;78201.91;;;-144.67;100.00
47522;BME280;32291;52.010;4.446;2022-09-16T02:12:19;78191.19;;;-144.67;100.00
47522;BME280;32291;52.010;4.446;2022-09-16T02:14:58;78193.31;;;-144.67;100.00
47522;BME280;32291;52.010;4.446;2022-09-16T02:16:29;78193.31;;;-144.67;100.00
47522;BME280;32291;52.010;4.446;2022-09-16T02:17:51;78189.03;;;-144.67;100.00
47522;BME280;32291;52.010;4.446;2022-09-16T02:19:08;78193.31;;;-144.67;100.00
47522;BME280;32291;52.010;4.446;2022-09-16T02:20:25;78191.19;;;-144.67;100.00
47522;BME280;32291;52.010;4.446;2022-09-16T02:21:36;78195.47;;;-144.67;100.00
47522;BME280;32291;52.010;4.446;2022-09-16T02:22:47;78193.31;;;-144.67;100.00
47522;BME280;32291;52.010;4.446;2022-09-16T02:24:00;78193.31;;;-144.67;100.00
47522;BME280;32291;52.010;4.446;2022-09-16T02:25:12;78204.03;;;-144.67;100.00
47522;BME280;32291;52.010;4.446;2022-09-16T02:26:26;78210.47;;;-144.67;100.00
47522;BME280;32291;52.010;4.446;2022-09-16T02:27:38;78214.75;;;-144.67;100.00
47522;BME280;32291;52.010;4.446;2022-09-16T02:28:52;78212.59;;;-144.67;100.00
47522;BME280;32291;52.010;4.446;2022-09-16T02:30:09;78219.03;;;-144.67;100.00
47522;BME280;32291;52.010;4.446;2022-09-16T02:31:27;78214.75;;;-144.67;100.00
47522;BME280;32291;52.010;4.446;2022-09-16T02:32:45;78208.31;;;-144.67;100.00
47522;BME280;32291;52.010;4.446;2022-09-16T02:34:00;78206.19;;;-144.67;100.00
47522;BME280;32291;52.010;4.446;2022-09-16T02:35:15;78216.88;;;-144.67;100.00
47522;BME280;32291;52.010;4.446;2022-09-16T02:36:22;78223.31;;;-144.67;100.00
47522;BME280;32291;52.010;4.446;2022-09-16T02:37:39;78227.59;;;-144.67;100.00
47522;BME280;32291;52.010;4.446;2022-09-16T02:39:12;78225.44;;;-144.67;100.00
47522;BME280;32291;52.010;4.446;2022-09-16T02:40:36;78227.59;;;-144.67;100.00
47522;BME280;32291;52.010;4.446;2022-09-16T02:41:52;78236.16;;;-144.67;100.00
47522;BME280;32291;52.010;4.446;2022-09-16T02:42:58;78231.88;;;-144.67;100.00
47522;BME280;32291;52.010;4.446;2022-09-16T02:44:02;78238.28;;;-144.67;100.00
47522;BME280;32291;52.010;4.446;2022-09-16T02:45:07;78236.16;;;-144.67;100.00
47522;BME280;32291;52.010;4.446;2022-09-16T02:46:39;78240.44;;;-144.67;100.00
47522;BME280;32291;52.010;4.446;2022-09-16T02:50:42;78251.13;;;-144.67;100.00
47522;BME280;32291;52.010;4.446;2022-09-16T02:52:21;78259.69;;;-144.67;100.00
47522;BME280;32291;52.010;4.446;2022-09-16T02:53:49;78257.56;;;-144.67;100.00
47522;BME280;32291;52.010;4.446;2022-09-16T02:56:35;78270.41;;;-144.67;100.00
47522;BME280;32291;52.010;4.446;2022-09-16T02:57:42;78278.97;;;-144.67;100.00
47522;BME280;32291;52.010;4.446;2022-09-16T02:58:49;78272.53;;;-144.67;100.00
47522;BME280;32291;52.010;4.446;2022-09-16T02:59:53;78274.69;;;-144.67;100.00
47522;BME280;32291;52.010;4.446;2022-09-16T03:00:57;78274.69;;;-144.67;100.00
47522;BME280;32291;52.010;4.446;2022-09-16T03:02:00;78278.97;;;-144.67;100.00
47522;BME280;32291;52.010;4.446;2022-09-16T03:03:08;78276.81;;;-144.67;100.00
47522;BME280;32291;52.010;4.446;2022-09-16T03:04:16;78272.53;;;-144.67;100.00
47522;BME280;32291;52.010;4.446;2022-09-16T03:05:30;78266.13;;;-144.67;100.00
47522;BME280;32291;52.010;4.446;2022-09-16T03:06:36;78268.25;;;-144.67;100.00
47522;BME280;32291;52.010;4.446;2022-09-16T03:07:41;78268.25;;;-144.67;100.00
47522;BME280;32291;52.010;4.446;2022-09-16T03:08:45;78268.25;;;-144.67;100.00
47522;BME280;32291;52.010;4.446;2022-09-16T03:09:50;78268.25;;;-144.67;100.00
47522;BME280;32291;52.010;4.446;2022-09-16T03:11:00;78272.53;;;-144.67;100.00
47522;BME280;32291;52.010;4.446;2022-09-16T03:14:19;78268.25;;;-144.67;100.00
47522;BME280;32291;52.010;4.446;2022-09-16T03:24:07;78266.13;;;-144.67;100.00
47522;BME280;32291;52.010;4.446;2022-09-16T03:26:51;78266.13;;;-144.67;100.00
47522;BME280;32291;52.010;4.446;2022-09-16T03:28:15;78257.56;;;-144.67;100.00
47522;BME280;32291;52.010;4.446;2022-09-16T03:29:39;78255.41;;;-144.67;100.00
47522;BME280;32291;52.010;4.446;2022-09-16T03:31:13;78253.28;;;-144.67;100.00
47522;BME280;32291;52.010;4.446;2022-09-16T03:33:04;78249.00;;;-144.67;100.00
47522;BME280;32291;52.010;4.446;2022-09-16T03:34:53;78240.44;;;-144.67;100.00
47522;BME280;32291;52.010;4.446;2022-09-16T03:36:14;78238.28;;;-144.67;100.00
47522;BME280;32291;52.010;4.446;2022-09-16T03:37:26;78238.28;;;-144.67;100.00
47522;BME280;32291;52.010;4.446;2022-09-16T03:38:37;78227.59;;;-144.67;100.00
47522;BME280;32291;52.010;4.446;2022-09-16T03:39:50;78231.88;;;-144.67;100.00
47522;BME280;32291;52.010;4.446;2022-09-16T03:40:57;78231.88;;;-144.67;100.00
47522;BME280;32291;52.010;4.446;2022-09-16T03:42:07;78227.59;;;-144.67;100.00
47522;BME280;32291;52.010;4.446;2022-09-16T03:43:17;78231.88;;;-144.67;100.00
47522;BME280;32291;52.010;4.446;2022-09-16T03:44:39;78236.16;;;-144.67;100.00
47522;BME280;32291;52.010;4.446;2022-09-16T03:45:45;78225.44;;;-144.67;100.00
47522;BME280;32291;52.010;4.446;2022-09-16T03:46:48;78219.03;;;-144.67;100.00
47522;BME280;32291;52.010;4.446;2022-09-16T03:47:58;78223.31;;;-144.67;100.00
47522;BME280;32291;52.010;4.446;2022-09-16T03:49:05;78227.59;;;-144.67;100.00
47522;BME280;32291;52.010;4.446;2022-09-16T03:50:11;78223.31;;;-144.67;100.00
47522;BME280;32291;52.010;4.446;2022-09-16T03:51:15;78236.16;;;-144.67;100.00
47522;BME280;32291;52.010;4.446;2022-09-16T03:52:23;78244.72;;;-144.67;100.00
47522;BME280;32291;52.010;4.446;2022-09-16T03:53:26;78238.28;;;-144.67;100.00
47522;BME280;32291;52.010;4.446;2022-09-16T03:54:36;78251.13;;;-144.67;100.00
47522;BME280;32291;52.010;4.446;2022-09-16T03:55:39;78249.00;;;-144.67;100.00
47522;BME280;32291;52.010;4.446;2022-09-16T03:56:41;78255.41;;;-144.67;100.00
47522;BME280;32291;52.010;4.446;2022-09-16T03:57:45;78249.00;;;-144.67;100.00
47522;BME280;32291;52.010;4.446;2022-09-16T03:58:48;78249.00;;;-144.67;100.00
47522;BME280;32291;52.010;4.446;2022-09-16T03:59:52;78249.00;;;-144.67;100.00
47522;BME280;32291;52.010;4.446;2022-09-16T04:00:59;78244.72;;;-144.67;100.00
47522;BME280;32291;52.010;4.446;2022-09-16T04:02:06;78246.84;;;-144.67;100.00
47522;BME280;32291;52.010;4.446;2022-09-16T04:03:09;78246.84;;;-144.67;100.00
47522;BME280;32291;52.010;4.446;2022-09-16T04:04:13;78240.44;;;-144.67;100.00
47522;BME280;32291;52.010;4.446;2022-09-16T04:05:17;78240.44;;;-144.67;100.00
47522;BME280;32291;52.010;4.446;2022-09-16T04:06:22;78236.16;;;-144.67;100.00
47522;BME280;32291;52.010;4.446;2022-09-16T04:07:25;78229.72;;;-144.67;100.00
47522;BME280;32291;52.010;4.446;2022-09-16T04:08:29;78229.72;;;-144.67;100.00
47522;BME280;32291;52.010;4.446;2022-09-16T04:09:31;78227.59;;;-144.67;100.00
47522;BME280;32291;52.010;4.446;2022-09-16T04:10:33;78221.16;;;-144.67;100.00
47522;BME280;32291;52.010;4.446;2022-09-16T04:11:36;78219.03;;;-144.67;100.00
47522;BME280;32291;52.010;4.446;2022-09-16T04:12:40;78221.16;;;-144.67;100.00
47522;BME280;32291;52.010;4.446;2022-09-16T04:13:43;78214.75;;;-144.67;100.00
47522;BME280;32291;52.010;4.446;2022-09-16T04:14:46;78214.75;;;-144.67;100.00
47522;BME280;32291;52.010;4.446;2022-09-16T04:15:50;78210.47;;;-144.67;100.00
47522;BME280;32291;52.010;4.446;2022-09-16T04:16:54;78214.75;;;-144.67;100.00
47522;BME280;32291;52.010;4.446;2022-09-16T04:17:59;78214.75;;;-144.67;100.00
47522;BME280;32291;52.010;4.446;2022-09-16T04:19:01;78210.47;;;-144.67;100.00
47522;BME280;32291;52.010;4.446;2022-09-16T04:20:09;78210.47;;;-144.67;100.00
47522;BME280;32291;52.010;4.446;2022-09-16T04:21:13;78201.91;;;-144.67;100.00
47522;BME280;32291;52.010;4.446;2022-09-16T04:22:18;78206.19;;;-144.67;100.00
47522;BME280;32291;52.010;4.446;2022-09-16T04:23:24;78206.19;;;-144.67;100.00
47522;BME280;32291;52.010;4.446;2022-09-16T04:24:31;78199.75;;;-144.67;100.00
47522;BME280;32291;52.010;4.446;2022-09-16T04:25:33;78214.75;;;-144.67;100.00
47522;BME280;32291;52.010;4.446;2022-09-16T04:26:38;78214.75;;;-144.67;100.00
47522;BME280;32291;52.010;4.446;2022-09-16T04:27:44;78219.03;;;-144.67;100.00
47522;BME280;32291;52.010;4.446;2022-09-16T04:28:47;78219.03;;;-144.67;100.00
47522;BME280;32291;52.010;4.446;2022-09-16T04:29:51;78216.88;;;-144.67;100.00
47522;BME280;32291;52.010;4.446;2022-09-16T04:31:05;78214.75;;;-144.67;100.00
47522;BME280;32291;52.010;4.446;2022-09-16T04:32:11;78214.75;;;-144.67;100.00
47522;BME280;32291;52.010;4.446;2022-09-16T04:33:15;78210.47;;;-144.67;100.00
47522;BME280;32291;52.010;4.446;2022-09-16T04:34:17;78219.03;;;-144.67;100.00
47522;BME280;32291;52.010;4.446;2022-09-16T04:35:23;78216.88;;;-144.67;100.00
47522;BME280;32291;52.010;4.446;2022-09-16T04:36:26;78214.75;;;-144.67;100.00
47522;BME280;32291;52.010;4.446;2022-09-16T04:37:29;78210.47;;;-144.67;100.00
47522;BME280;32291;52.010;4.446;2022-09-16T04:38:40;78216.88;;;-144.67;100.00
47522;BME280;32291;52.010;4.446;2022-09-16T04:39:44;78214.75;;;-144.67;100.00
47522;BME280;32291;52.010;4.446;2022-09-16T04:40:47;78219.03;;;-144.67;100.00
47522;BME280;32291;52.010;4.446;2022-09-16T04:41:52;78219.03;;;-144.67;100.00
47522;BME280;32291;52.010;4.446;2022-09-16T04:42:55;78223.31;;;-144.67;100.00
47522;BME280;32291;52.010;4.446;2022-09-16T04:44:01;78219.03;;;-144.67;100.00
47522;BME280;32291;52.010;4.446;2022-09-16T04:45:04;78216.88;;;-144.67;100.00
47522;BME280;32291;52.010;4.446;2022-09-16T04:46:08;78214.75;;;-144.67;100.00
47522;BME280;32291;52.010;4.446;2022-09-16T04:47:13;78210.47;;;-144.67;100.00
47522;BME280;32291;52.010;4.446;2022-09-16T04:48:16;78210.47;;;-144.67;100.00
47522;BME280;32291;52.010;4.446;2022-09-16T04:49:21;78206.19;;;-144.67;100.00
47522;BME280;32291;52.010;4.446;2022-09-16T04:50:24;78210.47;;;-144.67;100.00
47522;BME280;32291;52.010;4.446;2022-09-16T04:51:27;78208.31;;;-144.67;100.00
47522;BME280;32291;52.010;4.446;2022-09-16T04:52:31;78193.31;;;-144.67;100.00
47522;BME280;32291;52.010;4.446;2022-09-16T04:53:39;78195.47;;;-144.67;100.00
47522;BME280;32291;52.010;4.446;2022-09-16T04:54:45;78206.19;;;-144.67;100.00
47522;BME280;32291;52.010;4.446;2022-09-16T04:55:49;78197.59;;;-144.67;100.00
47522;BME280;32291;52.010;4.446;2022-09-16T04:56:53;78201.91;;;-144.67;100.00
47522;BME280;32291;52.010;4.446;2022-09-16T04:57:59;78206.19;;;-144.67;100.00
47522;BME280;32291;52.010;4.446;2022-09-16T04:59:04;78208.31;;;-144.67;100.00
47522;BME280;32291;52.010;4.446;2022-09-16T05:00:11;78214.75;;;-144.67;100.00
47522;BME280;32291;52.010;4.446;2022-09-16T05:01:18;78214.75;;;-144.67;100.00
47522;BME280;32291;52.010;4.446;2022-09-16T05:02:22;78219.03;;;-144.67;100.00
47522;BME280;32291;52.010;4.446;2022-09-16T05:03:25;78223.31;;;-144.67;100.00
47522;BME280;32291;52.010;4.446;2022-09-16T05:04:28;78231.88;;;-144.67;100.00
47522;BME280;32291;52.010;4.446;2022-09-16T05:05:33;78227.59;;;-144.67;100.00
47522;BME280;32291;52.010;4.446;2022-09-16T05:06:40;78236.16;;;-144.67;100.00
47522;BME280;32291;52.010;4.446;2022-09-16T05:07:46;78236.16;;;-144.67;100.00
47522;BME280;32291;52.010;4.446;2022-09-16T05:08:55;78236.16;;;-144.67;100.00
47522;BME280;32291;52.010;4.446;2022-09-16T05:09:59;78244.72;;;-144.67;100.00
47522;BME280;32291;52.010;4.446;2022-09-16T05:11:08;78246.84;;;-144.67;100.00
47522;BME280;32291;52.010;4.446;2022-09-16T05:12:13;78246.84;;;-144.67;100.00
47522;BME280;32291;52.010;4.446;2022-09-16T05:13:22;78255.41;;;-144.67;100.00
47522;BME280;32291;52.010;4.446;2022-09-16T05:14:24;78261.84;;;-144.67;100.00
47522;BME280;32291;52.010;4.446;2022-09-16T05:15:30;78261.84;;;-144.67;100.00
47522;BME280;32291;52.010;4.446;2022-09-16T05:16:40;78261.84;;;-144.67;100.00
47522;BME280;32291;52.010;4.446;2022-09-16T05:17:44;78257.56;;;-144.67;100.00
47522;BME280;32291;52.010;4.446;2022-09-16T05:18:48;78246.84;;;-144.67;100.00
47522;BME280;32291;52.010;4.446;2022-09-16T05:19:54;78242.56;;;-144.67;100.00
47522;BME280;32291;52.010;4.446;2022-09-16T05:20:59;78244.72;;;-144.67;100.00
47522;BME280;32291;52.010;4.446;2022-09-16T05:22:04;78240.44;;;-144.67;100.00
47522;BME280;32291;52.010;4.446;2022-09-16T05:23:09;78251.13;;;-144.67;100.00
47522;BME280;32291;52.010;4.446;2022-09-16T05:24:13;78255.41;;;-144.67;100.00
47522;BME280;32291;52.010;4.446;2022-09-16T05:25:16;78251.13;;;-144.67;100.00
47522;BME280;32291;52.010;4.446;2022-09-16T05:26:23;78253.28;;;-144.67;100.00
47522;BME280;32291;52.010;4.446;2022-09-16T05:27:30;78261.84;;;-144.67;100.00
47522;BME280;32291;52.010;4.446;2022-09-16T05:28:37;78270.41;;;-144.67;100.00
47522;BME280;32291;52.010;4.446;2022-09-16T05:29:41;78266.13;;;-144.67;100.00
47522;BME280;32291;52.010;4.446;2022-09-16T05:30:44;78261.84;;;-144.67;100.00
47522;BME280;32291;52.010;4.446;2022-09-16T05:31:47;78261.84;;;-144.67;100.00
47522;BME280;32291;52.010;4.446;2022-09-16T05:32:53;78266.13;;;-144.67;100.00
47522;BME280;32291;52.010;4.446;2022-09-16T05:34:16;78268.25;;;-144.67;100.00
47522;BME280;32291;52.010;4.446;2022-09-16T05:35:21;78266.13;;;-144.67;100.00
47522;BME280;32291;52.010;4.446;2022-09-16T05:36:27;78270.41;;;-144.67;100.00
47522;BME280;32291;52.010;4.446;2022-09-16T05:37:32;78276.81;;;-144.67;100.00
47522;BME280;32291;52.010;4.446;2022-09-16T05:38:35;78272.53;;;-144.67;100.00
47522;BME280;32291;52.010;4.446;2022-09-16T05:39:37;78274.69;;;-144.67;100.00
47522;BME280;32291;52.010;4.446;2022-09-16T05:40:43;78274.69;;;-144.67;100.00
47522;BME280;32291;52.010;4.446;2022-09-16T05:41:48;78263.97;;;-144.67;100.00
47522;BME280;32291;52.010;4.446;2022-09-16T05:42:53;78251.13;;;-144.67;100.00
47522;BME280;32291;52.010;4.446;2022-09-16T05:44:00;78253.28;;;-144.67;100.00
47522;BME280;32291;52.010;4.446;2022-09-16T05:45:05;78257.56;;;-144.67;100.00
47522;BME280;32291;52.010;4.446;2022-09-16T05:46:17;78251.13;;;-144.67;100.00
47522;BME280;32291;52.010;4.446;2022-09-16T05:47:24;78249.00;;;-144.67;100.00
47522;BME280;32291;52.010;4.446;2022-09-16T05:48:28;78253.28;;;-144.67;100.00
47522;BME280;32291;52.010;4.446;2022-09-16T05:49:30;78253.28;;;-144.67;100.00
47522;BME280;32291;52.010;4.446;2022-09-16T05:50:33;78242.56;;;-144.67;100.00
47522;BME280;32291;52.010;4.446;2022-09-16T05:51:38;78240.44;;;-144.67;100.00
47522;BME280;32291;52.010;4.446;2022-09-16T05:52:44;78244.72;;;-144.67;100.00
47522;BME280;32291;52.010;4.446;2022-09-16T05:53:50;78244.72;;;-144.67;100.00
47522;BME280;32291;52.010;4.446;2022-09-16T05:54:54;78240.44;;;-144.67;100.00
47522;BME280;32291;52.010;4.446;2022-09-16T05:56:03;78244.72;;;-144.67;100.00
47522;BME280;32291;52.010;4.446;2022-09-16T05:57:07;78253.28;;;-144.67;100.00
47522;BME280;32291;52.010;4.446;2022-09-16T05:58:10;78261.84;;;-144.67;100.00
47522;BME280;32291;52.010;4.446;2022-09-16T05:59:15;78261.84;;;-144.67;100.00
47522;BME280;32291;52.010;4.446;2022-09-16T06:00:18;78270.41;;;-144.67;100.00
47522;BME280;32291;52.010;4.446;2022-09-16T06:01:25;78272.53;;;-144.67;100.00
47522;BME280;32291;52.010;4.446;2022-09-16T06:02:29;78274.69;;;-144.67;100.00
47522;BME280;32291;52.010;4.446;2022-09-16T06:03:35;78287.53;;;-144.67;100.00
47522;BME280;32291;52.010;4.446;2022-09-16T06:04:40;78283.25;;;-144.67;100.00
47522;BME280;32291;52.010;4.446;2022-09-16T06:05:44;78278.97;;;-144.67;100.00
47522;BME280;32291;52.010;4.446;2022-09-16T06:06:47;78278.97;;;-144.67;100.00
47522;BME280;32291;52.010;4.446;2022-09-16T06:07:49;78278.97;;;-144.67;100.00
47522;BME280;32291;52.010;4.446;2022-09-16T06:08:59;78291.81;;;-144.67;100.00
47522;BME280;32291;52.010;4.446;2022-09-16T06:10:09;78291.81;;;-144.67;100.00
47522;BME280;32291;52.010;4.446;2022-09-16T06:11:14;78291.81;;;-144.67;100.00
47522;BME280;32291;52.010;4.446;2022-09-16T06:12:17;78287.53;;;-144.67;100.00
47522;BME280;32291;52.010;4.446;2022-09-16T06:13:19;78296.09;;;-144.67;100.00
47522;BME280;32291;52.010;4.446;2022-09-16T06:14:23;78304.66;;;-144.67;100.00
47522;BME280;32291;52.010;4.446;2022-09-16T06:15:26;78311.09;;;-144.67;100.00
47522;BME280;32291;52.010;4.446;2022-09-16T06:16:29;78304.66;;;-144.67;100.00
47522;BME280;32291;52.010;4.446;2022-09-16T06:17:36;78296.09;;;-144.67;100.00
47522;BME280;32291;52.010;4.446;2022-09-16T06:18:40;78300.38;;;-144.67;100.00
47522;BME280;32291;52.010;4.446;2022-09-16T06:19:44;78306.81;;;-144.67;100.00
47522;BME280;32291;52.010;4.446;2022-09-16T06:20:46;78306.81;;;-144.67;100.00
47522;BME280;32291;52.010;4.446;2022-09-16T06:21:51;78313.22;;;-144.67;100.00
47522;BME280;32291;52.010;4.446;2022-09-16T06:22:53;78308.94;;;-144.67;100.00
47522;BME280;32291;52.010;4.446;2022-09-16T06:23:56;78321.78;;;-144.67;100.00
47522;BME280;32291;52.010;4.446;2022-09-16T06:24:59;78308.94;;;-144.67;100.00
47522;BME280;32291;52.010;4.446;2022-09-16T06:26:12;78308.94;;;-144.67;100.00
47522;BME280;32291;52.010;4.446;2022-09-16T06:27:17;78304.66;;;-144.67;100.00
47522;BME280;32291;52.010;4.446;2022-09-16T06:28:21;78308.94;;;-144.67;100.00
47522;BME280;32291;52.010;4.446;2022-09-16T06:29:24;78308.94;;;-144.67;100.00
47522;BME280;32291;52.010;4.446;2022-09-16T06:30:27;78319.66;;;-144.67;100.00
47522;BME280;32291;52.010;4.446;2022-09-16T06:31:34;78308.94;;;-144.67;100.00
47522;BME280;32291;52.010;4.446;2022-09-16T06:32:38;78308.94;;;-144.67;100.00
47522;BME280;32291;52.010;4.446;2022-09-16T06:33:45;78317.50;;;-144.67;100.00
47522;BME280;32291;52.010;4.446;2022-09-16T06:34:47;78317.50;;;-144.67;100.00
47522;BME280;32291;52.010;4.446;2022-09-16T06:35:51;78317.50;;;-144.67;100.00
47522;BME280;32291;52.010;4.446;2022-09-16T06:36:54;78313.22;;;-144.67;100.00